createdAt,value
2018-01-05T00:02:12.562Z,5.03
2018-01-05T00:04:47.853Z,4.37
2018-01-05T00:07:23.754Z,3.15
2018-01-05T00:09:58.763Z,1.70
2018-01-05T00:12:33.284Z,1.40
2018-01-05T00:15:08.574Z,1.63
2018-01-05T00:17:43.239Z,2.20
2018-01-05T00:20:18.929Z,2.67
2018-01-05T00:22:53.863Z,2.23
2018-01-05T00:25:28.907Z,1.33
2018-01-05T00:28:03.934Z,2.73
2018-01-05T00:30:38.832Z,5.90
2018-01-05T00:33:13.755Z,5.20
2018-01-05T00:35:48.555Z,4.00
2018-01-05T00:38:23.866Z,2.20
2018-01-05T00:40:58.608Z,2.27
2018-01-05T00:43:33.588Z,4.93
2018-01-05T00:46:08.486Z,3.60
2018-01-05T00:48:43.475Z,1.67
2018-01-05T00:51:18.526Z,3.45
2018-01-05T00:53:52.995Z,3.67
2018-01-05T00:56:27.915Z,4.30
2018-01-05T00:59:02.723Z,2.63
2018-01-05T01:01:37.781Z,3.07
2018-01-05T01:04:12.575Z,3.53
2018-01-05T01:06:47.563Z,4.07
2018-01-05T01:09:23.930Z,4.12
2018-01-05T01:11:58.279Z,4.40
2018-01-05T01:14:33.563Z,3.10
2018-01-05T01:17:08.607Z,9.40
2018-01-05T01:19:43.528Z,5.43
2018-01-05T01:22:18.436Z,4.80
2018-01-05T01:24:53.691Z,4.05
2018-01-05T01:27:28.597Z,2.15
2018-01-05T01:30:03.629Z,2.87
2018-01-05T01:32:38.598Z,3.72
2018-01-05T01:35:13.645Z,1.30
2018-01-05T01:37:48.164Z,4.13
2018-01-05T01:40:23.915Z,3.22
2018-01-05T01:42:58.842Z,4.30
2018-01-05T01:45:33.175Z,5.63
2018-01-05T01:48:08.054Z,4.13
2018-01-05T01:50:42.799Z,2.70
2018-01-05T01:53:17.859Z,3.47
2018-01-05T01:55:52.807Z,6.47
2018-01-05T01:58:27.571Z,1.75
2018-01-05T02:01:02.770Z,5.10
2018-01-05T02:03:37.869Z,5.53
2018-01-05T02:06:12.827Z,8.23
2018-01-05T02:08:47.489Z,2.83
2018-01-05T02:11:24.051Z,4.65
2018-01-05T02:13:58.703Z,2.23
2018-01-05T02:16:34.004Z,4.10
2018-01-05T02:19:08.363Z,6.90
2018-01-05T02:21:43.235Z,1.80
2018-01-05T02:24:18.273Z,3.17
2018-01-05T02:26:53.037Z,2.00
2018-01-05T02:29:28.158Z,7.28
2018-01-05T02:32:02.979Z,2.73
2018-01-05T02:34:37.838Z,5.20
2018-01-05T02:37:12.562Z,4.40
2018-01-05T02:39:47.904Z,7.00
2018-01-05T02:42:23.615Z,2.93
2018-01-05T02:44:58.223Z,5.60
2018-01-05T02:47:33.270Z,5.23
2018-01-05T02:50:08.157Z,2.50
2018-01-05T02:52:43.180Z,4.10
2018-01-05T02:55:17.982Z,5.50
2018-01-05T02:57:52.918Z,4.87
2018-01-05T03:00:28.046Z,3.95
2018-01-05T03:03:02.857Z,3.00
2018-01-05T03:05:37.903Z,2.65
2018-01-05T03:08:12.837Z,3.30
2018-01-05T03:10:47.845Z,3.17
2018-01-05T03:13:24.153Z,3.75
2018-01-05T03:15:58.859Z,4.10
2018-01-05T03:18:34.134Z,4.18
2018-01-05T03:21:09.019Z,1.43
2018-01-05T03:23:44.088Z,3.90
2018-01-05T03:26:19.183Z,3.37
2018-01-05T03:28:54.066Z,7.07
2018-01-05T03:31:29.302Z,2.90
2018-01-05T03:34:04.251Z,5.20
2018-01-05T03:36:39.287Z,2.27
2018-01-05T03:39:14.091Z,1.70
2018-01-05T03:41:49.163Z,3.60
2018-01-05T03:44:24.334Z,3.93
2018-01-05T03:46:59.340Z,4.17
2018-01-05T03:49:34.138Z,2.70
2018-01-05T03:52:09.158Z,5.03
2018-01-05T03:54:44.151Z,3.73
2018-01-05T03:57:19.255Z,6.07
2018-01-05T03:59:54.175Z,5.67
2018-01-05T04:02:29.363Z,4.57
2018-01-05T04:05:05.371Z,8.60
2018-01-05T04:07:40.057Z,7.83
2018-01-05T04:10:15.068Z,6.60
2018-01-05T04:12:50.080Z,8.00
2018-01-05T04:15:25.134Z,8.07
2018-01-05T04:18:00.147Z,12.97
2018-01-05T04:20:35.115Z,8.33
2018-01-05T04:23:10.161Z,11.17
2018-01-05T04:25:44.703Z,8.00
2018-01-05T04:28:19.595Z,12.03
2018-01-05T04:30:54.267Z,5.97
2018-01-05T04:33:29.386Z,7.60
2018-01-05T04:36:04.456Z,8.37
2018-01-05T04:38:38.828Z,2.42
2018-01-05T04:41:13.251Z,6.47
2018-01-05T04:43:48.183Z,3.17
2018-01-05T04:46:22.692Z,7.30
2018-01-05T04:48:57.610Z,6.80
2018-01-05T04:51:32.415Z,5.97
2018-01-05T04:54:07.294Z,5.17
2018-01-05T04:56:42.178Z,2.33
2018-01-05T04:59:17.285Z,9.73
2018-01-05T05:01:53.270Z,2.80
2018-01-05T05:04:27.832Z,5.27
2018-01-05T05:07:02.703Z,6.80
2018-01-05T05:09:37.588Z,6.30
2018-01-05T05:12:12.688Z,7.03
2018-01-05T05:14:47.639Z,3.20
2018-01-05T05:17:22.736Z,6.93
2018-01-05T05:19:57.444Z,7.20
2018-01-05T05:22:32.492Z,7.13
2018-01-05T05:25:07.284Z,3.90
2018-01-05T05:27:42.151Z,6.32
2018-01-05T05:30:16.714Z,6.60
2018-01-05T05:32:51.706Z,6.70
2018-01-05T05:35:26.763Z,7.93
2018-01-05T05:38:01.444Z,5.10
2018-01-05T05:40:36.468Z,5.13
2018-01-05T05:43:11.338Z,3.67
2018-01-05T05:45:46.219Z,6.07
2018-01-05T05:48:22.258Z,6.30
2018-01-05T05:50:57.364Z,9.33
2018-01-05T05:53:32.559Z,8.00
2018-01-05T05:56:07.307Z,4.95
2018-01-05T05:58:42.558Z,4.45
2018-01-05T06:01:17.353Z,4.27
2018-01-05T06:03:52.364Z,9.27
2018-01-05T06:06:27.603Z,6.00
2018-01-05T06:09:02.502Z,8.20
2018-01-05T06:11:37.382Z,10.57
2018-01-05T06:14:12.698Z,6.73
2018-01-05T06:16:47.760Z,6.00
2018-01-05T06:19:22.827Z,6.23
2018-01-05T06:21:57.834Z,5.20
2018-01-05T06:24:32.707Z,6.85
2018-01-05T06:27:07.600Z,6.13
2018-01-05T06:29:42.847Z,8.80
2018-01-05T06:32:17.553Z,6.80
2018-01-05T06:34:52.340Z,3.70
2018-01-05T06:37:26.854Z,5.70
2018-01-05T06:40:01.710Z,14.57
2018-01-05T06:42:36.647Z,5.20
2018-01-05T06:45:11.467Z,6.30
2018-01-05T06:47:46.471Z,8.83
2018-01-05T06:50:21.463Z,3.15
2018-01-05T06:52:55.917Z,8.13
2018-01-05T06:55:30.999Z,4.80
2018-01-05T06:58:06.126Z,6.43
2018-01-05T07:00:40.853Z,5.63
2018-01-05T07:03:15.912Z,8.67
2018-01-05T07:05:50.642Z,3.73
2018-01-05T07:08:25.982Z,6.03
2018-01-05T07:11:00.839Z,5.60
2018-01-05T07:13:36.127Z,5.63
2018-01-05T07:16:10.788Z,5.87
2018-01-05T07:18:45.683Z,7.13
2018-01-05T07:21:20.766Z,10.80
2018-01-05T07:23:55.679Z,13.83
2018-01-05T07:26:30.891Z,9.50
2018-01-05T07:29:05.719Z,6.17
2018-01-05T07:31:40.226Z,14.45
2018-01-05T07:34:15.097Z,6.73
2018-01-05T07:36:50.047Z,5.70
2018-01-05T07:39:25.026Z,6.47
2018-01-05T07:41:59.636Z,7.50
2018-01-05T07:44:34.786Z,4.10
2018-01-05T07:47:09.771Z,4.97
2018-01-05T07:49:44.760Z,3.90
2018-01-05T07:52:19.754Z,4.10
2018-01-05T07:54:54.468Z,6.27
2018-01-05T07:57:29.218Z,10.10
2018-01-05T08:00:03.479Z,7.30
2018-01-05T08:02:38.968Z,7.57
2018-01-05T08:05:13.798Z,6.23
2018-01-05T08:07:48.428Z,2.87
2018-01-05T08:10:23.411Z,4.73
2018-01-05T08:12:58.354Z,6.73
2018-01-05T08:15:33.123Z,4.87
2018-01-05T08:18:08.269Z,2.70
2018-01-05T08:20:43.245Z,3.47
2018-01-05T08:23:18.237Z,7.30
2018-01-05T08:25:53.055Z,4.50
2018-01-05T08:28:28.036Z,2.80
2018-01-05T08:31:03.215Z,1.60
2018-01-05T08:33:38.821Z,8.32
2018-01-05T08:36:13.734Z,4.57
2018-01-05T08:38:48.455Z,2.13
2018-01-05T08:41:24.819Z,2.25
2018-01-05T08:43:59.371Z,2.23
2018-01-05T08:46:34.384Z,2.33
2018-01-05T08:49:09.906Z,2.30
2018-01-05T08:51:44.859Z,2.30
2018-01-05T08:54:19.127Z,9.40
2018-01-05T08:56:54.127Z,2.70
2018-01-05T08:59:29.182Z,4.67
2018-01-05T09:02:03.806Z,6.00
2018-01-05T09:04:38.903Z,3.43
2018-01-05T09:07:13.887Z,6.57
2018-01-05T09:09:48.891Z,3.30
2018-01-05T09:12:25.250Z,2.72
2018-01-05T09:15:00.069Z,5.17
2018-01-05T09:17:35.012Z,5.45
2018-01-05T09:20:10.040Z,2.03
2018-01-05T09:22:44.891Z,4.50
2018-01-05T09:25:20.033Z,5.90
2018-01-05T09:27:55.069Z,4.70
2018-01-05T09:30:30.234Z,6.27
2018-01-05T09:33:05.035Z,7.47
2018-01-05T09:35:40.090Z,4.15
2018-01-05T09:38:14.695Z,4.13
2018-01-05T09:40:49.371Z,4.40
2018-01-05T09:43:25.467Z,9.43
2018-01-05T09:45:59.955Z,4.13
2018-01-05T09:48:35.013Z,4.50
2018-01-05T09:51:09.602Z,2.87
2018-01-05T09:53:45.010Z,2.03
2018-01-05T09:56:20.087Z,2.60
2018-01-05T09:58:54.631Z,4.23
2018-01-05T10:01:29.567Z,2.23
2018-01-05T10:04:04.539Z,4.90
2018-01-05T10:06:39.347Z,2.50
2018-01-05T10:09:14.363Z,2.30
2018-01-05T10:11:48.823Z,2.03
2018-01-05T10:14:25.341Z,2.30
2018-01-05T10:17:00.179Z,2.40
2018-01-05T10:19:35.119Z,1.73
2018-01-05T10:22:09.642Z,4.10
2018-01-05T10:24:43.991Z,2.30
2018-01-05T10:27:19.171Z,2.53
2018-01-05T10:29:54.179Z,3.83
2018-01-05T10:32:29.072Z,1.90
2018-01-05T10:35:03.678Z,2.47
2018-01-05T10:37:38.564Z,1.60
2018-01-05T10:40:13.594Z,5.77
2018-01-05T10:42:48.711Z,3.55
2018-01-05T10:45:23.586Z,3.13
2018-01-05T10:47:58.511Z,2.00
2018-01-05T10:50:33.501Z,4.53
2018-01-05T10:53:08.194Z,1.73
2018-01-05T10:55:43.391Z,3.03
2018-01-05T10:58:18.150Z,7.12
2018-01-05T11:00:52.767Z,2.80
2018-01-05T11:03:27.580Z,5.60
2018-01-05T11:06:02.374Z,4.50
2018-01-05T11:08:37.821Z,11.00
2018-01-05T11:11:13.392Z,2.87
2018-01-05T11:13:48.288Z,4.13
2018-01-05T11:16:23.294Z,2.87
2018-01-05T11:18:58.190Z,6.33
2018-01-05T11:21:33.347Z,2.47
2018-01-05T11:24:08.282Z,3.30
2018-01-05T11:26:43.274Z,3.37
2018-01-05T11:29:17.858Z,2.23
2018-01-05T11:31:52.726Z,4.20
2018-01-05T11:34:27.757Z,2.13
2018-01-05T11:37:02.338Z,4.23
2018-01-05T11:39:37.592Z,4.57
2018-01-05T11:42:12.360Z,5.50
2018-01-05T11:44:47.376Z,6.17
2018-01-05T11:47:22.140Z,3.35
2018-01-05T11:49:56.833Z,3.93
2018-01-05T11:52:31.763Z,3.70
2018-01-05T11:55:06.772Z,2.43
2018-01-05T11:57:41.852Z,4.60
2018-01-05T12:00:16.851Z,5.23
2018-01-05T12:02:51.706Z,3.53
2018-01-05T12:05:27.479Z,15.30
2018-01-05T12:08:01.862Z,6.00
2018-01-05T12:10:36.943Z,4.10
2018-01-05T12:13:11.518Z,4.40
2018-01-05T12:15:46.422Z,4.07
2018-01-05T12:18:21.291Z,3.53
2018-01-05T12:20:56.066Z,5.72
2018-01-05T12:23:31.439Z,2.75
2018-01-05T12:26:06.548Z,3.30
2018-01-05T12:28:41.659Z,5.73
2018-01-05T12:31:17.200Z,4.83
2018-01-05T12:33:52.181Z,4.13
2018-01-05T12:36:26.843Z,4.53
2018-01-05T12:39:01.951Z,2.30
2018-01-05T12:41:36.871Z,4.12
2018-01-05T12:44:11.857Z,3.80
2018-01-05T12:46:46.809Z,8.23
2018-01-05T12:49:21.617Z,3.40
2018-01-05T12:51:56.593Z,4.03
2018-01-05T12:54:31.711Z,3.60
2018-01-05T12:57:06.323Z,3.70
2018-01-05T12:59:41.727Z,2.70
2018-01-05T13:02:16.687Z,6.80
2018-01-05T13:04:51.313Z,2.78
2018-01-05T13:07:26.534Z,6.13
2018-01-05T13:10:01.592Z,8.27
2018-01-05T13:12:37.034Z,4.13
2018-01-05T13:15:11.854Z,2.93
2018-01-05T13:17:46.707Z,6.87
2018-01-05T13:20:21.671Z,3.73
2018-01-05T13:22:56.775Z,4.00
2018-01-05T13:25:31.919Z,4.20
2018-01-05T13:28:07.439Z,2.83
2018-01-05T13:30:42.462Z,2.92
2018-01-05T13:33:17.715Z,3.03
2018-01-05T13:35:52.607Z,3.40
2018-01-05T13:38:27.851Z,4.60
2018-01-05T13:41:02.718Z,2.90
2018-01-05T13:43:37.231Z,5.37
2018-01-05T13:46:12.188Z,4.73
2018-01-05T13:48:46.907Z,5.90
2018-01-05T13:51:21.577Z,5.43
2018-01-05T13:53:56.775Z,8.53
2018-01-05T13:56:32.118Z,6.30
2018-01-05T13:59:07.012Z,7.10
2018-01-05T14:01:42.855Z,6.50
2018-01-05T14:04:17.795Z,7.37
2018-01-05T14:06:52.774Z,7.90
2018-01-05T14:09:27.782Z,9.48
2018-01-05T14:12:02.625Z,6.85
2018-01-05T14:14:37.999Z,8.18
2018-01-05T14:17:12.586Z,9.17
2018-01-05T14:19:47.246Z,13.80
2018-01-05T14:22:22.767Z,10.02
2018-01-05T14:24:57.338Z,11.93
2018-01-05T14:27:32.734Z,10.70
2018-01-05T14:30:07.834Z,9.07
2018-01-05T14:32:43.177Z,6.70
2018-01-05T14:35:17.870Z,10.85
2018-01-05T14:37:52.975Z,5.80
2018-01-05T14:40:28.059Z,8.83
2018-01-05T14:43:02.947Z,4.83
2018-01-05T14:45:37.898Z,9.30
2018-01-05T14:48:12.829Z,10.47
2018-01-05T14:50:47.193Z,12.23
2018-01-05T14:53:22.151Z,6.03
2018-01-05T14:55:57.013Z,8.27
2018-01-05T14:58:32.102Z,6.32
2018-01-05T15:01:06.956Z,7.10
2018-01-05T15:03:41.534Z,12.17
2018-01-05T15:06:16.768Z,12.20
2018-01-05T15:08:51.836Z,8.48
2018-01-05T15:11:26.858Z,7.53
2018-01-05T15:14:01.730Z,9.85
2018-01-05T15:16:36.203Z,13.05
2018-01-05T15:19:11.447Z,19.33
2018-01-05T15:21:46.280Z,18.73
2018-01-05T15:24:20.914Z,11.80
2018-01-05T15:26:55.314Z,24.97
2018-01-05T15:29:30.210Z,16.58
2018-01-05T15:32:04.842Z,11.80
2018-01-05T15:34:40.305Z,11.50
2018-01-05T15:37:15.092Z,19.10
2018-01-05T15:39:50.052Z,11.50
2018-01-05T15:42:26.319Z,11.93
2018-01-05T15:45:01.104Z,8.93
2018-01-05T15:47:36.255Z,65.40
2018-01-05T15:50:11.206Z,14.00
2018-01-05T15:52:46.123Z,11.37
2018-01-05T15:55:21.041Z,7.30
2018-01-05T15:57:56.075Z,7.43
2018-01-05T16:00:30.301Z,10.17
2018-01-05T16:03:05.199Z,7.33
2018-01-05T16:05:40.374Z,12.13
2018-01-05T16:08:15.087Z,16.90
2018-01-05T16:10:50.238Z,12.37
2018-01-05T16:13:26.475Z,15.15
2018-01-05T16:16:01.459Z,14.67
2018-01-05T16:18:36.575Z,11.77
2018-01-05T16:21:11.601Z,21.60
2018-01-05T16:23:46.363Z,13.47
2018-01-05T16:26:21.398Z,11.73
2018-01-05T16:28:56.275Z,6.50
2018-01-05T16:31:31.059Z,10.55
2018-01-05T16:34:06.056Z,15.02
2018-01-05T16:36:41.182Z,13.10
2018-01-05T16:39:16.174Z,12.97
2018-01-05T16:41:51.309Z,8.60
2018-01-05T16:44:26.546Z,18.43
2018-01-05T16:47:01.306Z,13.83
2018-01-05T16:49:36.382Z,9.20
2018-01-05T16:52:11.416Z,11.07
2018-01-05T16:54:46.630Z,12.67
2018-01-05T16:57:21.493Z,9.73
2018-01-05T16:59:56.298Z,12.90
2018-01-05T17:02:30.755Z,25.37
2018-01-05T17:05:05.768Z,30.73
2018-01-05T17:07:40.678Z,19.07
2018-01-05T17:10:15.714Z,13.30
2018-01-05T17:12:50.782Z,12.00
2018-01-05T17:15:26.658Z,10.85
2018-01-05T17:18:01.371Z,13.30
2018-01-05T17:20:36.314Z,14.87
2018-01-05T17:23:11.278Z,11.55
2018-01-05T17:25:46.259Z,12.23
2018-01-05T17:28:22.940Z,16.27
2018-01-05T17:30:57.727Z,19.80
2018-01-05T17:33:32.707Z,14.07
2018-01-05T17:36:07.863Z,13.20
2018-01-05T17:38:42.676Z,11.27
2018-01-05T17:41:17.778Z,8.50
2018-01-05T17:43:52.579Z,12.03
2018-01-05T17:46:27.655Z,13.07
2018-01-05T17:49:02.504Z,15.93
2018-01-05T17:51:37.834Z,19.93
2018-01-05T17:54:12.557Z,12.67
2018-01-05T17:56:47.954Z,11.03
2018-01-05T17:59:23.487Z,14.53
2018-01-05T18:01:58.392Z,14.07
2018-01-05T18:04:33.439Z,16.85
2018-01-05T18:07:08.487Z,10.40
2018-01-05T18:09:43.220Z,14.60
2018-01-05T18:12:17.512Z,14.40
2018-01-05T18:14:52.514Z,11.60
2018-01-05T18:17:27.974Z,8.30
2018-01-05T18:20:03.497Z,10.83
2018-01-05T18:22:38.418Z,19.33
2018-01-05T18:25:17.386Z,19.90
2018-01-05T18:27:53.068Z,20.57
2018-01-05T18:30:28.194Z,22.80
2018-01-05T18:33:02.827Z,17.60
2018-01-05T18:35:37.806Z,17.77
2018-01-05T18:38:12.595Z,14.10
2018-01-05T18:40:47.586Z,14.20
2018-01-05T18:43:22.578Z,13.13
2018-01-05T18:45:57.900Z,17.53
2018-01-05T18:48:32.843Z,12.50
2018-01-05T18:51:07.861Z,17.03
2018-01-05T18:53:43.283Z,7.20
2018-01-05T18:56:18.235Z,21.20
2018-01-05T18:58:53.227Z,13.83
2018-01-05T19:01:30.087Z,10.73
2018-01-05T19:04:05.638Z,8.90
2018-01-05T19:06:40.539Z,12.23
2018-01-05T19:09:15.623Z,17.60
2018-01-05T19:11:50.622Z,12.70
2018-01-05T19:14:26.924Z,11.77
2018-01-05T19:17:01.724Z,12.17
2018-01-05T19:19:36.776Z,10.57
2018-01-05T19:22:11.635Z,9.03
2018-01-05T19:24:46.597Z,10.70
2018-01-05T19:27:21.654Z,16.70
2018-01-05T19:29:56.667Z,12.80
2018-01-05T19:32:31.935Z,10.65
2018-01-05T19:35:06.811Z,10.90
2018-01-05T19:37:41.882Z,18.80
2018-01-05T19:40:16.938Z,14.57
2018-01-05T19:42:51.701Z,15.10
2018-01-05T19:45:27.150Z,16.00
2018-01-05T19:48:02.360Z,8.40
2018-01-05T19:50:37.102Z,12.13
2018-01-05T19:53:12.118Z,12.90
2018-01-05T19:55:46.829Z,16.23
2018-01-05T19:58:21.787Z,14.50
2018-01-05T20:00:56.746Z,13.63
2018-01-05T20:03:31.723Z,12.50
2018-01-05T20:06:06.835Z,18.67
2018-01-05T20:08:42.140Z,9.75
2018-01-05T20:11:17.091Z,12.50
2018-01-05T20:13:52.087Z,12.47
2018-01-05T20:16:27.335Z,20.27
2018-01-05T20:19:01.875Z,12.20
2018-01-05T20:21:37.107Z,19.80
2018-01-05T20:24:12.098Z,18.20
2018-01-05T20:26:47.436Z,10.05
2018-01-05T20:29:22.407Z,32.27
2018-01-05T20:31:57.446Z,12.57
2018-01-05T20:34:32.526Z,15.30
2018-01-05T20:37:07.944Z,7.20
2018-01-05T20:39:43.139Z,9.07
2018-01-05T20:42:17.877Z,7.63
2018-01-05T20:44:52.875Z,7.67
2018-01-05T20:47:27.607Z,6.23
2018-01-05T20:50:02.411Z,4.73
2018-01-05T20:52:37.528Z,11.63
2018-01-05T20:55:12.420Z,4.83
2018-01-05T20:57:47.250Z,6.90
2018-01-05T21:00:22.352Z,6.20
2018-01-05T21:02:57.120Z,4.80
2018-01-05T21:05:32.246Z,6.13
2018-01-05T21:08:07.060Z,8.10
2018-01-05T21:10:42.075Z,7.10
2018-01-05T21:13:17.017Z,3.93
2018-01-05T21:15:51.938Z,3.60
2018-01-05T21:18:27.333Z,1.67
2018-01-05T21:21:02.222Z,1.70
2018-01-05T21:23:37.448Z,1.33
2018-01-05T21:26:12.444Z,1.53
2018-01-05T21:28:47.576Z,3.60
2018-01-05T21:31:22.530Z,1.40
2018-01-05T21:33:57.526Z,2.80
2018-01-05T21:36:32.604Z,5.57
2018-01-05T21:39:07.874Z,2.55
2018-01-05T21:41:42.881Z,3.63
2018-01-05T21:44:17.556Z,4.10
2018-01-05T21:46:52.491Z,3.90
2018-01-05T21:49:27.634Z,2.87
2018-01-05T21:52:02.219Z,4.73
2018-01-05T21:54:37.129Z,3.67
2018-01-05T21:57:12.118Z,3.03
2018-01-05T21:59:47.137Z,3.00
2018-01-05T22:02:21.678Z,1.80
2018-01-05T22:04:56.338Z,2.67
2018-01-05T22:07:31.298Z,1.70
2018-01-05T22:10:06.255Z,1.50
2018-01-05T22:12:40.795Z,5.13
2018-01-05T22:15:16.105Z,3.10
2018-01-05T22:17:50.666Z,2.30
2018-01-05T22:20:25.657Z,4.03
2018-01-05T22:23:00.615Z,7.37
2018-01-05T22:25:35.431Z,2.23
2018-01-05T22:28:10.434Z,2.60
2018-01-05T22:30:45.489Z,4.62
2018-01-05T22:33:20.294Z,2.03
2018-01-05T22:35:55.167Z,2.42
2018-01-05T22:38:29.915Z,3.00
2018-01-05T22:41:05.295Z,4.60
2018-01-05T22:43:40.512Z,7.57
2018-01-05T22:46:15.375Z,3.20
2018-01-05T22:48:50.269Z,2.67
2018-01-05T22:51:24.701Z,7.60
2018-01-05T22:53:59.509Z,12.33
2018-01-05T22:56:34.682Z,2.53
2018-01-05T22:59:09.689Z,3.83
2018-01-05T23:01:44.596Z,5.53
2018-01-05T23:04:19.583Z,6.77
2018-01-05T23:06:54.472Z,7.57
2018-01-05T23:09:29.591Z,3.20
2018-01-05T23:12:04.451Z,5.77
2018-01-05T23:14:39.558Z,6.00
2018-01-05T23:17:14.240Z,4.83
2018-01-05T23:19:49.447Z,8.70
2018-01-05T23:22:24.347Z,3.60
2018-01-05T23:24:59.401Z,3.70
2018-01-05T23:27:33.946Z,8.60
2018-01-05T23:30:08.203Z,3.47
2018-01-05T23:32:42.694Z,5.57
2018-01-05T23:35:17.767Z,5.80
2018-01-05T23:37:52.478Z,7.00
2018-01-05T23:40:27.883Z,7.73
2018-01-05T23:43:02.638Z,9.17
2018-01-05T23:45:37.530Z,6.30
2018-01-05T23:48:12.323Z,5.13
2018-01-05T23:50:47.523Z,5.90
2018-01-05T23:53:22.658Z,5.83
2018-01-05T23:55:57.479Z,10.90
2018-01-05T23:58:32.515Z,9.13
